Time;durP1;ratioP1;P1;durP2;ratioP2;P2;SDS_P1;SDS_P2;PMS_P1;PMS_P2;Temp;Humidity;BMP_temperature;BMP_pressure;BME280_temperature;BME280_humidity;BME280_pressure;Samples;Min_cycle;Max_cycle;Signal;HPM_P1;HPM_P2
2022/09/26 00:01:51;;;;;;;0.77;0.77;;;18.80;57.40;;;;;;5085707;28;20036;-61
2022/09/26 00:04:23;;;;;;;0.70;0.68;;;18.80;57.40;;;;;;5085687;28;20251;-61
2022/09/26 00:06:50;;;;;;;1.00;0.90;;;18.80;57.40;;;;;;5085666;28;20013;-61
2022/09/26 00:09:17;;;;;;;1.00;0.80;;;18.80;57.40;;;;;;5085493;28;20253;-61
2022/09/26 00:11:43;;;;;;;0.70;0.70;;;18.80;57.40;;;;;;5085502;28;20304;-61
2022/09/26 00:14:17;;;;;;;0.90;0.70;;;18.80;57.40;;;;;;5085322;28;20043;-62
2022/09/26 00:16:43;;;;;;;0.77;0.60;;;18.80;57.40;;;;;;5085420;28;20039;-61
2022/09/26 00:19:09;;;;;;;0.63;0.60;;;18.80;57.30;;;;;;5085378;28;20020;-61
2022/09/26 00:21:35;;;;;;;0.57;0.57;;;18.80;58.00;;;;;;5085358;28;20044;-61
2022/09/26 00:24:02;;;;;;;1.17;0.60;;;18.80;58.00;;;;;;5085259;28;20030;-60
2022/09/26 00:26:30;;;;;;;0.73;0.73;;;18.80;57.40;;;;;;5085224;28;20017;-61
2022/09/26 00:28:57;;;;;;;0.60;0.60;;;18.80;57.40;;;;;;5085102;28;20032;-60
2022/09/26 00:31:26;;;;;;;1.13;1.00;;;18.80;57.40;;;;;;5085099;28;20016;-61
2022/09/26 00:33:52;;;;;;;0.70;0.70;;;18.80;57.40;;;;;;5085085;28;20073;-61
2022/09/26 00:36:18;;;;;;;0.80;0.70;;;18.80;57.40;;;;;;5085036;28;20016;-60
2022/09/26 00:38:44;;;;;;;0.40;0.40;;;18.70;57.40;;;;;;5085008;28;20024;-60
2022/09/26 00:41:10;;;;;;;0.80;0.65;;;18.80;57.40;;;;;;5084940;28;20201;-60
2022/09/26 00:43:38;;;;;;;0.70;0.70;;;18.80;57.40;;;;;;5084894;28;20020;-61
2022/09/26 00:46:04;;;;;;;0.70;0.70;;;18.80;57.40;;;;;;5084835;28;20027;-61
2022/09/26 00:48:30;;;;;;;0.70;0.70;;;18.80;57.40;;;;;;5084752;28;20024;-60
2022/09/26 00:50:56;;;;;;;0.60;0.60;;;18.80;57.50;;;;;;5084730;28;20019;-61
2022/09/26 00:53:32;;;;;;;0.70;0.60;;;18.80;57.40;;;;;;5084704;28;20067;-61
2022/09/26 00:56:04;;;;;;;0.85;0.60;;;18.80;57.40;;;;;;5084670;28;20372;-61
2022/09/26 00:58:45;;;;;;;0.63;0.63;;;18.80;57.40;;;;;;5084622;28;20024;-60
2022/09/26 01:01:12;;;;;;;0.73;0.70;;;18.80;57.50;;;;;;5084565;28;20039;-61
2022/09/26 01:03:41;;;;;;;0.82;0.82;;;18.80;57.40;;;;;;5084474;28;20009;-60
2022/09/26 01:06:06;;;;;;;0.75;0.70;;;18.80;57.40;;;;;;5084419;28;20012;-62
2022/09/26 01:08:37;;;;;;;0.98;0.73;;;18.70;57.40;;;;;;5084281;28;20027;-61
2022/09/26 01:11:03;;;;;;;0.68;0.68;;;18.80;57.50;;;;;;5084364;28;20039;-61
2022/09/26 01:13:35;;;;;;;1.02;0.93;;;18.80;57.40;;;;;;5084315;28;20027;-60
2022/09/26 01:16:02;;;;;;;1.02;0.90;;;18.80;58.10;;;;;;5084196;28;20202;-61
2022/09/26 01:18:28;;;;;;;0.68;0.68;;;18.80;57.40;;;;;;5084203;28;20076;-60
2022/09/26 01:21:15;;;;;;;0.75;0.70;;;18.80;57.50;;;;;;5084151;28;20012;-61
2022/09/26 01:24:18;;;;;;;0.73;0.52;;;18.80;57.50;;;;;;5084140;28;20020;-61
2022/09/26 01:27:11;;;;;;;0.80;0.75;;;18.70;57.40;;;;;;5084068;28;20407;-61
2022/09/26 01:29:54;;;;;;;1.08;0.70;;;18.70;57.50;;;;;;5083942;28;20031;-61
2022/09/26 01:32:50;;;;;;;0.95;0.93;;;18.80;57.50;;;;;;5083990;28;20020;-62
2022/09/26 01:35:25;;;;;;;0.75;0.57;;;18.80;57.50;;;;;;5083917;28;20019;-61
2022/09/26 01:38:21;;;;;;;0.77;0.60;;;18.80;57.50;;;;;;5066103;28;20020;-60
2022/09/26 01:41:14;;;;;;;0.80;0.80;;;18.70;57.50;;;;;;5083867;28;20012;-62
2022/09/26 01:43:58;;;;;;;0.50;0.50;;;18.80;57.40;;;;;;5083815;28;20023;-61
2022/09/26 01:46:59;;;;;;;0.90;0.88;;;18.70;57.50;;;;;;5083744;28;20026;-60
2022/09/26 01:49:28;;;;;;;0.70;0.65;;;18.70;57.40;;;;;;5073126;28;20032;-61
2022/09/26 01:51:59;;;;;;;0.80;0.80;;;18.70;57.40;;;;;;5083707;28;20023;-61
2022/09/26 01:54:36;;;;;;;0.73;0.73;;;18.70;57.40;;;;;;5083690;28;20020;-61
2022/09/26 01:57:05;;;;;;;0.63;0.60;;;18.70;57.30;;;;;;5083638;28;20015;-60
2022/09/26 01:59:36;;;;;;;0.88;0.70;;;18.70;57.30;;;;;;5083605;28;20330;-61
2022/09/26 02:02:09;;;;;;;0.98;0.70;;;18.70;57.40;;;;;;5083575;28;20392;-61
2022/09/26 02:04:40;;;;;;;0.95;0.82;;;18.70;57.40;;;;;;5083610;28;20031;-61
2022/09/26 02:07:18;;;;;;;0.70;0.70;;;18.70;57.40;;;;;;5083534;28;20020;-61
2022/09/26 02:09:50;;;;;;;0.88;0.70;;;18.70;57.50;;;;;;5083446;28;20190;-61
2022/09/26 02:12:22;;;;;;;0.95;0.70;;;18.70;57.50;;;;;;5083471;28;20062;-61
2022/09/26 02:14:53;;;;;;;0.47;0.47;;;18.70;57.40;;;;;;5083290;28;20115;-61
2022/09/26 02:17:24;;;;;;;1.00;0.90;;;18.70;57.50;;;;;;5083470;28;20335;-61
2022/09/26 02:20:05;;;;;;;0.82;0.65;;;18.70;57.40;;;;;;5087019;28;20028;-60
2022/09/26 02:22:33;;;;;;;1.00;0.70;;;18.70;57.50;;;;;;5090130;28;20024;-61
2022/09/26 02:25:01;;;;;;;0.80;0.80;;;18.70;57.50;;;;;;5090064;28;20016;-61
2022/09/26 02:27:27;;;;;;;0.52;0.52;;;18.70;57.50;;;;;;5090015;28;20028;-61
2022/09/26 02:29:53;;;;;;;0.93;0.77;;;18.70;57.40;;;;;;5089935;28;20020;-61
2022/09/26 02:32:24;;;;;;;0.93;0.80;;;18.70;57.50;;;;;;5090004;28;20066;-61
2022/09/26 02:34:50;;;;;;;0.73;0.65;;;18.70;57.40;;;;;;5090008;28;20016;-62
2022/09/26 02:37:19;;;;;;;0.60;0.60;;;18.70;57.50;;;;;;5090218;28;20300;-61
2022/09/26 02:39:47;;;;;;;0.65;0.65;;;18.70;57.50;;;;;;5089833;28;20024;-60
2022/09/26 02:42:23;;;;;;;0.77;0.70;;;18.70;57.50;;;;;;5089884;28;20043;-61
2022/09/26 02:45:11;;;;;;;0.55;0.55;;;18.70;57.50;;;;;;5089940;28;20430;-61
2022/09/26 02:47:55;;;;;;;1.40;0.90;;;18.70;57.50;;;;;;5089885;28;20339;-61
2022/09/26 02:50:27;;;;;;;0.95;0.90;;;18.70;57.50;;;;;;5089774;28;20016;-61
2022/09/26 02:53:17;;;;;;;0.70;0.70;;;18.70;57.50;;;;;;5089806;28;20014;-61
2022/09/26 02:55:56;;;;;;;0.70;0.70;;;18.70;57.50;;;;;;5089796;28;20400;-61
2022/09/26 02:58:25;;;;;;;0.73;0.73;;;18.70;57.50;;;;;;5089757;28;20304;-61
2022/09/26 03:01:03;;;;;;;1.23;0.85;;;18.70;57.50;;;;;;5089767;28;20208;-61
2022/09/26 03:03:43;;;;;;;0.80;0.50;;;18.70;57.50;;;;;;5089775;28;20037;-61
2022/09/26 03:06:14;;;;;;;0.95;0.80;;;18.70;57.50;;;;;;5089704;28;20050;-61
2022/09/26 03:08:45;;;;;;;0.73;0.73;;;18.70;57.50;;;;;;5089632;28;20023;-61
2022/09/26 03:11:17;;;;;;;1.67;0.80;;;18.70;57.50;;;;;;5089655;28;20048;-62
2022/09/26 03:13:44;;;;;;;0.65;0.65;;;18.70;57.50;;;;;;5089614;28;20021;-61
2022/09/26 03:16:13;;;;;;;1.17;0.95;;;18.70;57.50;;;;;;5089457;28;20336;-62
2022/09/26 03:19:03;;;;;;;0.85;0.73;;;18.70;57.50;;;;;;5089596;28;20051;-62
2022/09/26 03:21:29;;;;;;;0.68;0.68;;;18.70;57.50;;;;;;5060553;28;20035;-62
2022/09/26 03:23:57;;;;;;;0.82;0.75;;;18.70;57.50;;;;;;5089686;28;20045;-61
2022/09/26 03:26:25;;;;;;;1.15;1.05;;;18.70;57.50;;;;;;5089437;28;20019;-62
2022/09/26 03:28:52;;;;;;;0.70;0.63;;;18.70;57.50;;;;;;5089337;28;20039;-62
2022/09/26 03:31:20;;;;;;;1.15;0.80;;;18.70;58.20;;;;;;5086555;28;20250;-61
2022/09/26 03:33:47;;;;;;;1.00;0.82;;;18.70;57.50;;;;;;5086204;28;20019;-61
2022/09/26 03:36:12;;;;;;;0.82;0.77;;;18.70;57.50;;;;;;5086119;28;20016;-61
2022/09/26 03:38:38;;;;;;;0.80;0.80;;;18.70;57.50;;;;;;5086135;28;20043;-60
2022/09/26 03:41:06;;;;;;;0.70;0.63;;;18.70;57.50;;;;;;5086047;28;20066;-61
2022/09/26 03:43:31;;;;;;;0.80;0.80;;;18.70;57.50;;;;;;5086011;28;20012;-61
2022/09/26 03:46:02;;;;;;;0.60;0.60;;;18.70;57.50;;;;;;5085985;28;20020;-61
2022/09/26 03:48:30;;;;;;;0.50;0.50;;;18.70;57.50;;;;;;5085867;28;20084;-61
2022/09/26 03:51:02;;;;;;;0.70;0.70;;;18.70;57.50;;;;;;5085923;28;20231;-61
2022/09/26 03:53:31;;;;;;;0.80;0.60;;;18.70;57.50;;;;;;5085884;28;20256;-62
2022/09/26 03:56:12;;;;;;;0.70;0.70;;;18.70;57.50;;;;;;5085785;28;20040;-61
2022/09/26 03:58:38;;;;;;;0.68;0.68;;;18.70;57.50;;;;;;5085801;28;20042;-60
2022/09/26 04:01:06;;;;;;;0.55;0.55;;;18.70;57.40;;;;;;5085737;28;20021;-60
2022/09/26 04:03:38;;;;;;;0.63;0.63;;;18.70;57.50;;;;;;5085666;28;20051;-61
2022/09/26 04:06:07;;;;;;;0.70;0.60;;;18.70;58.10;;;;;;5085636;28;20020;-61
2022/09/26 04:08:33;;;;;;;0.60;0.60;;;18.70;58.10;;;;;;5067621;28;20024;-60
2022/09/26 04:11:08;;;;;;;0.73;0.70;;;18.70;57.50;;;;;;5085491;28;20031;-62
2022/09/26 04:13:35;;;;;;;0.57;0.57;;;18.70;57.50;;;;;;5085520;28;20019;-60
2022/09/26 04:16:02;;;;;;;0.75;0.73;;;18.60;57.50;;;;;;5085272;28;20320;-61
2022/09/26 04:18:28;;;;;;;0.75;0.70;;;18.70;57.50;;;;;;5085396;28;20031;-61
2022/09/26 04:20:58;;;;;;;1.20;1.00;;;18.70;57.50;;;;;;5085355;28;20026;-61
2022/09/26 04:23:29;;;;;;;0.98;0.65;;;18.70;57.60;;;;;;5085335;28;20013;-61
2022/09/26 04:25:54;;;;;;;0.88;0.70;;;18.70;57.50;;;;;;5085270;28;20017;-61
2022/09/26 04:28:21;;;;;;;1.10;0.90;;;18.60;57.50;;;;;;5085515;28;20013;-60
2022/09/26 04:30:46;;;;;;;0.70;0.70;;;18.70;57.50;;;;;;5085088;28;20051;-60
2022/09/26 04:33:12;;;;;;;0.57;0.57;;;18.70;57.50;;;;;;5085688;28;20296;-60
2022/09/26 04:35:38;;;;;;;0.82;0.77;;;18.70;57.60;;;;;;5085112;28;20282;-60
2022/09/26 04:38:04;;;;;;;0.73;0.73;;;18.70;57.50;;;;;;5085056;28;20023;-60
2022/09/26 04:40:30;;;;;;;0.60;0.60;;;18.60;57.50;;;;;;5084966;28;20024;-61
2022/09/26 04:42:56;;;;;;;1.38;1.02;;;18.70;57.50;;;;;;5084594;28;20028;-61
2022/09/26 04:45:22;;;;;;;0.70;0.70;;;18.70;57.50;;;;;;5084322;28;20332;-61
2022/09/26 04:47:48;;;;;;;0.60;0.60;;;18.70;57.50;;;;;;5085118;28;20024;-61
2022/09/26 04:50:14;;;;;;;0.73;0.73;;;18.60;57.50;;;;;;5084715;28;20024;-60
2022/09/26 04:52:40;;;;;;;0.70;0.70;;;18.60;57.50;;;;;;5084759;28;20244;-61
2022/09/26 04:55:06;;;;;;;0.57;0.50;;;18.60;57.50;;;;;;5084676;28;20066;-61
2022/09/26 04:57:32;;;;;;;0.80;0.60;;;18.60;57.60;;;;;;5084608;28;20098;-61
2022/09/26 04:59:58;;;;;;;0.70;0.68;;;18.70;57.60;;;;;;5084561;28;20028;-61
2022/09/26 05:02:23;;;;;;;0.65;0.65;;;18.60;57.50;;;;;;5084537;28;20212;-60
2022/09/26 05:04:50;;;;;;;0.57;0.52;;;18.60;57.50;;;;;;5084513;28;20307;-62
2022/09/26 05:07:17;;;;;;;0.80;0.80;;;18.60;57.50;;;;;;5084406;28;20020;-61
2022/09/26 05:09:43;;;;;;;0.70;0.50;;;18.60;57.50;;;;;;5084339;28;20300;-60
2022/09/26 05:12:10;;;;;;;0.82;0.70;;;18.70;57.60;;;;;;5084390;28;20239;-60
2022/09/26 05:14:36;;;;;;;0.47;0.47;;;18.60;57.50;;;;;;5084348;28;20060;-61
2022/09/26 05:17:02;;;;;;;1.00;0.60;;;18.70;57.60;;;;;;5084279;28;20017;-60
2022/09/26 05:19:28;;;;;;;0.88;0.60;;;18.60;57.50;;;;;;5084228;28;20181;-61
2022/09/26 05:21:54;;;;;;;1.00;0.90;;;18.60;57.50;;;;;;5084197;28;20046;-61
2022/09/26 05:27:06;;;;;;;1.40;0.85;;;18.60;57.50;;;;;;5084105;28;20019;-60
2022/09/26 05:29:32;;;;;;;0.80;0.80;;;18.60;57.60;;;;;;5083956;28;20027;-60
2022/09/26 05:32:00;;;;;;;0.68;0.55;;;18.60;57.50;;;;;;5084022;28;20205;-60
2022/09/26 05:34:26;;;;;;;0.70;0.70;;;18.60;57.50;;;;;;5083953;28;20023;-60
2022/09/26 05:36:52;;;;;;;0.70;0.63;;;18.60;57.60;;;;;;5083926;28;20259;-60
2022/09/26 05:42:06;;;;;;;1.40;0.70;;;18.60;57.60;;;;;;5084179;28;20104;-61
2022/09/26 05:44:32;;;;;;;0.73;0.73;;;18.60;57.60;;;;;;5083758;28;20024;-61
2022/09/26 05:46:58;;;;;;;1.25;0.80;;;18.60;57.50;;;;;;5083792;28;20019;-61
2022/09/26 05:49:24;;;;;;;0.88;0.70;;;18.60;57.50;;;;;;5083690;28;20031;-61
2022/09/26 05:51:51;;;;;;;0.63;0.63;;;18.60;57.60;;;;;;5084029;28;20012;-61
2022/09/26 05:54:17;;;;;;;0.50;0.50;;;18.60;57.60;;;;;;5083035;28;20016;-61
2022/09/26 05:56:42;;;;;;;1.00;0.75;;;18.60;57.50;;;;;;5083677;28;20300;-61
2022/09/26 05:59:08;;;;;;;1.15;0.90;;;18.60;57.50;;;;;;5083638;28;20028;-61
2022/09/26 06:01:34;;;;;;;1.45;0.65;;;18.60;57.50;;;;;;5083623;28;20027;-62
2022/09/26 06:04:01;;;;;;;0.57;0.47;;;18.60;57.50;;;;;;5065765;28;20267;-61
2022/09/26 06:06:28;;;;;;;0.50;0.43;;;18.60;57.50;;;;;;5083569;28;20016;-60
2022/09/26 06:08:54;;;;;;;1.02;0.73;;;18.60;57.50;;;;;;5083442;28;20263;-61
2022/09/26 06:11:26;;;;;;;0.77;0.65;;;18.60;57.50;;;;;;5083524;28;20190;-62
2022/09/26 06:13:52;;;;;;;1.15;0.95;;;18.60;57.50;;;;;;5083362;28;20016;-61
2022/09/26 06:16:19;;;;;;;0.68;0.60;;;18.60;57.50;;;;;;5083476;28;20338;-60
2022/09/26 06:18:47;;;;;;;1.25;0.70;;;18.60;57.50;;;;;;5083453;28;20016;-61
2022/09/26 06:21:15;;;;;;;0.90;0.75;;;18.60;57.50;;;;;;5083422;28;20373;-61
2022/09/26 06:23:41;;;;;;;1.17;0.73;;;18.60;57.60;;;;;;5065513;28;20065;-62
2022/09/26 06:26:10;;;;;;;0.80;0.75;;;18.60;57.50;;;;;;5083386;28;20233;-61
2022/09/26 06:28:37;;;;;;;0.73;0.73;;;18.60;57.50;;;;;;5083239;28;20047;-61
2022/09/26 06:31:11;;;;;;;0.60;0.60;;;18.60;57.50;;;;;;5083329;28;20078;-61
2022/09/26 06:33:37;;;;;;;0.60;0.60;;;18.60;57.50;;;;;;5083297;28;20012;-60
2022/09/26 06:36:05;;;;;;;0.68;0.65;;;18.60;57.50;;;;;;5083273;28;20327;-61
2022/09/26 06:38:31;;;;;;;;;;;18.60;57.50;;;;;;5083676;28;20047;-60
2022/09/26 06:40:57;;;;;;;0.50;0.50;;;18.60;57.50;;;;;;5083226;28;19901;-61
2022/09/26 06:43:23;;;;;;;0.80;0.73;;;18.70;57.50;;;;;;5083199;28;20076;-61
2022/09/26 06:45:49;;;;;;;0.63;0.60;;;18.60;57.50;;;;;;5083123;28;20028;-61
2022/09/26 06:48:16;;;;;;;0.60;0.60;;;18.60;57.50;;;;;;5083156;28;20044;-61
2022/09/26 06:50:42;;;;;;;1.83;0.88;;;18.60;57.50;;;;;;5083018;28;20013;-60
2022/09/26 06:53:07;;;;;;;0.60;0.60;;;18.60;57.50;;;;;;5083090;28;20020;-61
2022/09/26 06:55:33;;;;;;;0.50;0.50;;;18.60;57.50;;;;;;5083094;28;20076;-60
2022/09/26 06:57:59;;;;;;;0.65;0.63;;;18.60;57.50;;;;;;5083054;28;20243;-61
2022/09/26 07:00:25;;;;;;;0.70;0.65;;;18.60;57.50;;;;;;5083032;28;20386;-61
2022/09/26 07:02:53;;;;;;;0.52;0.52;;;18.70;57.50;;;;;;5083024;28;20189;-60
2022/09/26 07:05:20;;;;;;;0.70;0.70;;;18.70;57.50;;;;;;5083572;28;20036;-60
2022/09/26 07:07:47;;;;;;;0.70;0.70;;;18.70;57.50;;;;;;5086737;28;20025;-61
2022/09/26 07:10:15;;;;;;;1.05;0.80;;;18.60;57.50;;;;;;5086593;28;20020;-61
2022/09/26 07:12:46;;;;;;;0.60;0.60;;;18.60;57.50;;;;;;5086649;28;20021;-61
2022/09/26 07:15:14;;;;;;;0.60;0.60;;;18.70;57.50;;;;;;5086473;28;20043;-61
2022/09/26 07:17:42;;;;;;;0.70;0.60;;;18.60;57.40;;;;;;5086570;28;20020;-61
2022/09/26 07:20:13;;;;;;;0.80;0.70;;;18.70;57.50;;;;;;5086486;28;20066;-61
2022/09/26 07:22:39;;;;;;;0.68;0.68;;;18.70;57.50;;;;;;5086534;28;20084;-61
2022/09/26 07:25:05;;;;;;;0.50;0.50;;;18.60;57.40;;;;;;5086411;28;20024;-62
2022/09/26 07:27:32;;;;;;;0.60;0.60;;;18.70;57.40;;;;;;5086379;28;20023;-60
2022/09/26 07:29:57;;;;;;;1.08;0.77;;;18.70;57.40;;;;;;5086272;28;20217;-62
2022/09/26 07:32:24;;;;;;;0.70;0.70;;;18.70;57.50;;;;;;5086305;28;20023;-62
2022/09/26 07:34:52;;;;;;;0.63;0.63;;;18.70;57.50;;;;;;5086280;28;20147;-61
2022/09/26 07:37:18;;;;;;;0.60;0.60;;;18.70;57.40;;;;;;5086222;28;20062;-60
2022/09/26 07:39:44;;;;;;;0.60;0.60;;;18.70;57.40;;;;;;5086179;28;20028;-61
2022/09/26 07:42:09;;;;;;;0.70;0.70;;;18.70;57.50;;;;;;5086111;28;20020;-61
2022/09/26 07:44:35;;;;;;;0.68;0.68;;;18.70;57.50;;;;;;5086102;28;20039;-61
2022/09/26 07:52:31;;;;;;;0.70;0.50;;;18.70;57.50;;;;;;5086015;28;20328;-61
2022/09/26 07:54:57;;;;;;;0.82;0.77;;;18.70;57.50;;;;;;5085889;28;20020;-61
2022/09/26 07:57:23;;;;;;;1.40;0.93;;;18.70;57.40;;;;;;5085841;28;20013;-61
2022/09/26 07:59:49;;;;;;;0.70;0.70;;;18.60;58.00;;;;;;5085821;28;20070;-61
2022/09/26 08:02:34;;;;;;;0.70;0.70;;;18.60;57.50;;;;;;5085775;28;20048;-61
2022/09/26 08:05:04;;;;;;;0.75;0.70;;;18.60;57.50;;;;;;5085776;28;20017;-61
2022/09/26 08:07:31;;;;;;;0.50;0.50;;;18.70;57.50;;;;;;5085676;28;20328;-60
2022/09/26 08:09:57;;;;;;;0.70;0.70;;;18.70;57.50;;;;;;5085581;28;20092;-62
2022/09/26 08:12:25;;;;;;;0.75;0.60;;;18.60;57.40;;;;;;5085597;28;20016;-60
2022/09/26 08:14:51;;;;;;;0.77;0.77;;;18.70;57.50;;;;;;5085395;28;20040;-61
2022/09/26 08:17:18;;;;;;;0.70;0.70;;;18.60;57.50;;;;;;5084781;28;20016;-60
2022/09/26 08:19:44;;;;;;;0.88;0.68;;;18.60;57.50;;;;;;5085433;28;20134;-61
2022/09/26 08:22:11;;;;;;;0.68;0.65;;;18.70;57.50;;;;;;5085384;28;20032;-61
2022/09/26 08:24:37;;;;;;;1.00;0.73;;;18.70;57.50;;;;;;5085353;28;20030;-61
2022/09/26 08:27:04;;;;;;;0.93;0.80;;;18.60;57.40;;;;;;5085270;28;20020;-61
2022/09/26 08:29:33;;;;;;;1.02;0.70;;;18.70;57.50;;;;;;5085131;28;20216;-61
2022/09/26 08:32:03;;;;;;;0.77;0.63;;;18.70;57.50;;;;;;5085211;28;20020;-60
2022/09/26 08:34:30;;;;;;;0.70;0.70;;;18.70;57.50;;;;;;5085156;28;20012;-61
2022/09/26 08:36:56;;;;;;;0.95;0.93;;;18.70;57.40;;;;;;5085116;28;20036;-61
2022/09/26 08:39:22;;;;;;;0.80;0.63;;;18.70;57.40;;;;;;5085055;28;20054;-61
2022/09/26 08:42:00;;;;;;;0.73;0.73;;;18.70;57.40;;;;;;5084966;28;20025;-61
2022/09/26 08:44:48;;;;;;;0.80;0.80;;;18.70;57.40;;;;;;5085022;28;20054;-62
2022/09/26 08:47:22;;;;;;;0.57;0.57;;;18.70;57.30;;;;;;5084912;28;20013;-61
2022/09/26 08:49:58;;;;;;;0.57;0.57;;;18.70;57.30;;;;;;5084781;28;20020;-61
2022/09/26 08:52:55;;;;;;;1.02;0.82;;;18.70;57.30;;;;;;5084838;28;20042;-62
2022/09/26 08:55:31;;;;;;;0.70;0.70;;;18.70;57.30;;;;;;5084782;28;20309;-62
2022/09/26 08:58:15;;;;;;;0.82;0.82;;;18.70;57.30;;;;;;5067147;28;20020;-61
2022/09/26 09:00:41;;;;;;;0.75;0.70;;;18.70;57.30;;;;;;5084668;28;20024;-61
2022/09/26 09:03:22;;;;;;;0.98;0.80;;;18.70;57.30;;;;;;5084575;28;20021;-61
2022/09/26 09:06:06;;;;;;;0.70;0.50;;;18.70;57.30;;;;;;5084493;28;20031;-61
2022/09/26 09:08:45;;;;;;;0.70;0.68;;;18.70;57.20;;;;;;5084467;28;20041;-61
2022/09/26 09:11:42;;;;;;;0.80;0.80;;;18.80;57.20;;;;;;5084354;28;20058;-61
2022/09/26 09:14:56;;;;;;;0.85;0.60;;;18.80;57.20;;;;;;5084210;28;20269;-60
2022/09/26 09:17:40;;;;;;;0.82;0.70;;;18.80;57.20;;;;;;5037798;28;20067;-60
2022/09/26 09:20:27;;;;;;;0.95;0.50;;;18.80;57.20;;;;;;5084141;28;20312;-60
2022/09/26 09:23:01;;;;;;;1.08;0.57;;;18.80;57.20;;;;;;5084181;28;20035;-61
2022/09/26 09:25:40;;;;;;;0.52;0.52;;;18.70;57.20;;;;;;5084084;28;20066;-61
2022/09/26 09:28:40;;;;;;;0.68;0.68;;;18.70;57.30;;;;;;5083883;28;20057;-60
2022/09/26 09:31:13;;;;;;;0.50;0.50;;;18.70;57.30;;;;;;5051097;28;20032;-61
2022/09/26 09:33:51;;;;;;;0.57;0.57;;;18.70;57.30;;;;;;5083953;28;20016;-61
2022/09/26 09:36:22;;;;;;;0.80;0.80;;;18.80;57.20;;;;;;5083995;28;20017;-61
2022/09/26 09:38:49;;;;;;;0.60;0.52;;;18.80;57.20;;;;;;5083876;28;20016;-61
2022/09/26 09:41:23;;;;;;;0.67;0.67;;;18.80;57.20;;;;;;5083839;28;20017;-60
2022/09/26 09:43:54;;;;;;;0.88;0.88;;;18.80;57.30;;;;;;5083870;28;20016;-61
2022/09/26 09:46:29;;;;;;;0.70;0.70;;;18.80;57.30;;;;;;5083701;28;20085;-61
2022/09/26 09:49:17;;;;;;;0.60;0.60;;;18.80;57.30;;;;;;5083668;28;20025;-62
2022/09/26 09:52:23;;;;;;;0.70;0.70;;;18.80;57.30;;;;;;5083386;28;20075;-61
2022/09/26 09:54:58;;;;;;;0.65;0.55;;;18.80;57.30;;;;;;5083667;28;20233;-61
2022/09/26 09:57:30;;;;;;;0.98;0.90;;;18.80;57.30;;;;;;5083664;28;20367;-61
2022/09/26 10:00:03;;;;;;;0.77;0.77;;;18.80;57.30;;;;;;5083604;28;20024;-60
2022/09/26 10:02:50;;;;;;;0.75;0.75;;;18.80;57.30;;;;;;5083588;28;20020;-60
2022/09/26 10:05:22;;;;;;;0.70;0.70;;;18.80;57.40;;;;;;5083590;28;20016;-60
2022/09/26 10:07:49;;;;;;;0.95;0.88;;;18.70;57.50;;;;;;5083596;28;20047;-61
2022/09/26 10:10:44;;;;;;;0.60;0.60;;;18.70;57.50;;;;;;5083443;28;20025;-62
2022/09/26 10:13:10;;;;;;;0.85;0.80;;;18.80;57.50;;;;;;5082904;28;20368;-61
2022/09/26 10:15:42;;;;;;;1.02;0.80;;;18.80;57.30;;;;;;5083247;28;20071;-61
2022/09/26 10:18:20;;;;;;;0.90;0.90;;;18.80;57.30;;;;;;5083485;28;20016;-61
2022/09/26 10:20:56;;;;;;;1.08;0.70;;;18.80;57.20;;;;;;5083453;28;20091;-61
2022/09/26 10:23:49;;;;;;;0.60;0.60;;;18.80;57.30;;;;;;5083660;28;20020;-61
2022/09/26 10:26:22;;;;;;;0.60;0.60;;;18.80;57.20;;;;;;5081058;28;20025;-61
2022/09/26 10:28:54;;;;;;;0.68;0.60;;;18.80;57.20;;;;;;5083284;28;20017;-61
2022/09/26 10:31:37;;;;;;;0.82;0.65;;;18.80;57.30;;;;;;5083333;28;20320;-61
2022/09/26 10:34:20;;;;;;;0.70;0.70;;;18.80;57.30;;;;;;5083310;28;20017;-62
2022/09/26 10:36:46;;;;;;;0.60;0.60;;;18.80;57.20;;;;;;5083264;28;20016;-61
2022/09/26 10:42:00;;;;;;;1.27;0.73;;;18.80;57.20;;;;;;5086726;28;20245;-61
2022/09/26 10:44:35;;;;;;;0.93;0.80;;;18.80;57.20;;;;;;5087156;28;20256;-61
2022/09/26 10:47:09;;;;;;;1.15;0.77;;;18.80;57.30;;;;;;5087179;28;20042;-61
2022/09/26 10:49:42;;;;;;;1.00;0.98;;;18.80;57.30;;;;;;5087093;28;20087;-62
2022/09/26 10:52:37;;;;;;;0.95;0.70;;;18.80;57.30;;;;;;5087364;28;20013;-60
2022/09/26 10:55:15;;;;;;;0.70;0.70;;;18.80;57.40;;;;;;5087017;28;20020;-61
2022/09/26 10:57:57;;;;;;;1.00;0.90;;;18.80;57.40;;;;;;5087003;28;20080;-61
2022/09/26 11:00:39;;;;;;;0.55;0.50;;;18.80;57.40;;;;;;5086864;28;20373;-60
2022/09/26 11:03:14;;;;;;;0.40;0.40;;;18.80;57.40;;;;;;5086846;28;20024;-61
2022/09/26 11:05:55;;;;;;;0.60;0.60;;;18.80;57.40;;;;;;5086868;28;20031;-60
2022/09/26 11:08:32;;;;;;;0.70;0.70;;;18.80;57.40;;;;;;5086819;28;20029;-61
2022/09/26 11:11:01;;;;;;;1.00;0.90;;;18.80;57.40;;;;;;5086882;28;20081;-61
2022/09/26 11:13:31;;;;;;;0.70;0.70;;;18.80;57.40;;;;;;5086673;28;20013;-61
2022/09/26 11:15:59;;;;;;;0.65;0.65;;;18.80;57.30;;;;;;5086318;28;20044;-62
2022/09/26 11:18:43;;;;;;;0.60;0.60;;;18.80;57.30;;;;;;5086573;28;20024;-61
2022/09/26 11:21:23;;;;;;;0.65;0.65;;;18.80;57.30;;;;;;5086475;28;20312;-61
2022/09/26 11:24:01;;;;;;;0.60;0.60;;;18.80;57.20;;;;;;5086533;28;20085;-62
2022/09/26 11:27:04;;;;;;;0.50;0.50;;;18.90;57.20;;;;;;5086446;28;20062;-60
2022/09/26 11:29:33;;;;;;;0.65;0.65;;;18.80;57.10;;;;;;5083441;28;20229;-61
2022/09/26 11:31:59;;;;;;;1.05;0.80;;;18.80;57.30;;;;;;5086559;28;20016;-61
2022/09/26 11:34:30;;;;;;;0.90;0.85;;;18.80;57.40;;;;;;5086290;28;20012;-60
2022/09/26 11:37:04;;;;;;;0.60;0.60;;;18.80;57.40;;;;;;5068377;28;20017;-61
2022/09/26 11:39:36;;;;;;;0.73;0.73;;;18.80;57.40;;;;;;5086509;28;20016;-61
2022/09/26 11:42:12;;;;;;;0.65;0.65;;;18.80;57.50;;;;;;5086514;28;20243;-60
2022/09/26 11:45:00;;;;;;;0.70;0.70;;;18.80;57.40;;;;;;5086106;28;20273;-61
2022/09/26 11:48:11;;;;;;;0.60;0.60;;;18.80;57.40;;;;;;5086141;28;20066;-61
2022/09/26 11:50:59;;;;;;;0.70;0.70;;;18.90;57.30;;;;;;5085935;28;20203;-60
2022/09/26 11:53:56;;;;;;;1.25;0.70;;;18.80;57.30;;;;;;5084876;28;20054;-61
2022/09/26 11:56:56;;;;;;;0.60;0.60;;;18.80;57.30;;;;;;5072493;28;20224;-61
2022/09/26 11:59:51;;;;;;;0.70;0.70;;;18.80;57.50;;;;;;5085870;28;20212;-60
2022/09/26 12:02:30;;;;;;;0.60;0.60;;;18.80;57.50;;;;;;5085787;28;20024;-61
2022/09/26 12:05:24;;;;;;;0.70;0.60;;;18.80;57.50;;;;;;5085782;28;20016;-61
2022/09/26 12:08:24;;;;;;;0.80;0.60;;;18.80;57.50;;;;;;5085689;28;20028;-60
2022/09/26 12:11:08;;;;;;;0.80;0.77;;;18.80;57.50;;;;;;5085611;28;20263;-61
2022/09/26 12:14:00;;;;;;;0.70;0.70;;;18.80;57.50;;;;;;5085579;28;20016;-62
2022/09/26 12:17:08;;;;;;;0.50;0.50;;;18.80;57.40;;;;;;5085180;28;20044;-60
2022/09/26 12:19:48;;;;;;;;;;;18.90;57.40;;;;;;5037233;28;20044;-61
2022/09/26 12:22:27;;;;;;;0.90;0.60;;;18.90;57.30;;;;;;5085453;28;19900;-60
2022/09/26 12:25:09;;;;;;;0.63;0.63;;;18.90;57.10;;;;;;5085382;28;20324;-60
2022/09/26 12:27:42;;;;;;;0.50;0.50;;;19.00;57.10;;;;;;5085572;28;20224;-61
2022/09/26 12:30:43;;;;;;;0.65;0.65;;;19.00;57.10;;;;;;5085244;28;20020;-61
2022/09/26 12:33:57;;;;;;;0.50;0.50;;;19.00;57.00;;;;;;5052865;28;20340;-61
2022/09/26 12:36:53;;;;;;;0.90;0.57;;;19.00;56.90;;;;;;5079810;28;20082;-61
2022/09/26 12:39:35;;;;;;;0.50;0.50;;;19.00;57.10;;;;;;5085101;28;20021;-62
2022/09/26 12:42:27;;;;;;;0.40;0.40;;;18.90;57.20;;;;;;5085038;28;20016;-61
2022/09/26 12:45:25;;;;;;;0.90;0.90;;;18.90;57.20;;;;;;5084960;28;20323;-60
2022/09/26 12:48:26;;;;;;;0.80;0.77;;;18.90;57.30;;;;;;5085225;28;20022;-61
2022/09/26 12:51:46;;;;;;;0.65;0.65;;;18.80;57.60;;;;;;5084793;28;20084;-60
2022/09/26 12:54:39;;;;;;;0.60;0.60;;;18.80;57.50;;;;;;5023163;28;20014;-61
2022/09/26 12:57:24;;;;;;;0.68;0.65;;;18.80;57.30;;;;;;5083702;28;20029;-61
2022/09/26 13:00:22;;;;;;;0.70;0.60;;;18.90;57.20;;;;;;5084668;28;20016;-61
2022/09/26 13:02:54;;;;;;;0.50;0.50;;;19.20;56.80;;;;;;5084535;28;20023;-61
2022/09/26 13:05:29;;;;;;;0.65;0.65;;;19.30;56.40;;;;;;5084525;28;20027;-61
2022/09/26 13:08:24;;;;;;;0.50;0.50;;;19.40;56.10;;;;;;5084528;28;20024;-61
2022/09/26 13:11:14;;;;;;;0.80;0.80;;;19.30;56.00;;;;;;5084370;28;20020;-60
2022/09/26 13:14:04;;;;;;;0.60;0.60;;;19.20;56.40;;;;;;5084688;28;20020;-61
2022/09/26 13:17:05;;;;;;;0.50;0.50;;;19.10;56.70;;;;;;5084228;28;20198;-61
2022/09/26 13:19:54;;;;;;;0.60;0.60;;;19.10;56.90;;;;;;5084310;28;20016;-61
2022/09/26 13:22:19;;;;;;;0.65;0.60;;;19.00;57.00;;;;;;5084251;28;20020;-61
2022/09/26 13:25:13;;;;;;;0.90;0.70;;;19.00;57.10;;;;;;5084168;28;20076;-61
2022/09/26 13:27:45;;;;;;;0.65;0.57;;;19.00;57.10;;;;;;5084141;28;20020;-61
2022/09/26 13:30:16;;;;;;;0.60;0.60;;;19.00;57.20;;;;;;5084001;28;20259;-61
2022/09/26 13:33:01;;;;;;;0.80;0.65;;;19.00;57.20;;;;;;5084077;28;20016;-60
2022/09/26 13:35:34;;;;;;;0.65;0.65;;;19.00;57.20;;;;;;5084011;28;20098;-61
2022/09/26 13:38:13;;;;;;;0.82;0.63;;;19.00;57.10;;;;;;5083992;28;20020;-61